Latest Weather Observations for Gelantipy

IDV60801

Issued at 3:52 pm EST Monday 27 May 2019 (issued every 10 minutes, with the page automatically refreshed every 10 minutes)

About weather observations | Map of weather stations | Latest weather observations for VIC | Other Formats
Station Details ID: 084142 Name: GELANTIPY Lat: -37.22 Lon: 148.26 Height: 755.0 m
Data from the previous 72 hours. | See also: Recent months at Gelantipy
Date/Time
EST
Temp
°C
App
Temp
°C
Dew
Point
°C
Rel
Hum
%
Delta-T
°C
Wind Press
QNH
hPa
Press
MSL
hPa
Rain since
9am
mm
Dir  Spd
km/h
Gust
km/h
Spd
kts
Gust
kts
27/03:38pm 5.8 -1.5 0.2 67 2.3 WSW 28 50 15 27 1004.6 1004.3 0.0
27/03:30pm 5.6 -1.2 0.8 71 2.0 W 26 43 14 23 1004.1 1003.9 0.0
27/03:09pm 5.5 -1.8 0.1 68 2.2 WSW 28 59 15 32 1004.0 1003.8 0.0
27/03:00pm 6.1 -1.2 0.0 65 2.5 W 28 43 15 23 1003.6 1003.3 0.0
27/02:49pm 6.2 -1.1 -0.3 63 2.6 W 28 54 15 29 1003.8 1003.6 0.0
27/02:30pm 5.6 -1.6 0.8 71 2.0 W 28 43 15 23 1003.6 1003.3 0.0
27/02:11pm 4.5 -5.1 1.2 79 1.4 W 41 70 22 38 1003.6 1003.3 0.0
27/02:09pm 4.4 -4.9 0.9 78 1.4 W 39 70 21 38 1003.7 1003.5 0.0
27/02:00pm 5.6 -3.0 0.4 69 2.1 W 35 54 19 29 1003.7 1003.5 0.0
27/01:30pm 6.0 -2.3 -0.5 63 2.6 W 33 56 18 30 1002.9 1002.6 0.0
27/01:12pm 7.0 -1.4 -0.7 58 3.1 W 33 52 18 28 1003.0 1002.7 0.0
27/01:00pm 6.3 -2.2 -1.8 56 3.2 W 33 50 18 27 1003.0 1002.7 0.0
27/12:30pm 6.3 -2.9 -1.1 59 2.9 W 37 57 20 31 1003.2 1002.9 0.0
27/12:08pm 6.9 -1.8 -0.8 58 3.1 W 35 54 19 29 1003.3 1003.0 0.0
27/12:00pm 6.2 -3.0 -1.7 57 3.1 W 37 54 20 29 1003.5 1003.2 0.0
27/11:30am 6.2 -1.6 -0.7 61 2.7 WNW 30 52 16 28 1003.6 1003.3 0.0
27/11:00am 5.8 -2.4 -0.9 62 2.7 WNW 32 50 17 27 1003.8 1003.6 0.0
27/10:32am 5.6 -1.9 -1.1 62 2.6 W 28 48 15 26 1003.9 1003.7 0.0
27/10:30am 5.9 -0.6 0.5 68 2.2 W 24 44 13 24 1004.1 1003.9 0.0
27/10:00am 5.6 0.4 0.0 67 2.3 WNW 17 37 9 20 1004.0 1003.8 0.0
27/09:30am 4.8 -0.1 -0.2 70 2.0 WNW 15 20 8 11 1004.0 1003.8 0.0
27/09:00am 3.6 0.0 0.3 79 1.3 W 9 15 5 8 1004.1 1003.9 6.6
27/08:30am 3.9 -0.9 -0.1 75 1.6 NW 15 22 8 12 1003.9 1003.7 6.6
27/08:00am 4.0 -0.4 0.5 78 1.4 NNW 13 19 7 10 1003.7 1003.5 6.6
27/07:30am 3.2 -0.8 0.3 81 1.1 NNW 11 17 6 9 1003.7 1003.5 6.6
27/07:00am 2.6 -1.0 0.8 88 0.7 WNW 9 20 5 11 1003.4 1003.1 6.6
27/06:30am 2.8 -4.3 1.5 91 0.5 WNW 28 46 15 25 1003.7 1003.5 6.4
27/06:26am 2.8 -4.3 1.3 90 0.6 WNW 28 46 15 25 1003.7 1003.5 6.4
27/06:00am 3.3 -3.4 1.2 86 0.9 WNW 26 39 14 21 1003.8 1003.6 6.4
27/05:30am 2.3 -3.2 1.7 96 0.2 W 20 32 11 17 1003.9 1003.7 6.2
27/05:00am 1.8 -4.5 1.5 98 0.1 W 24 41 13 22 1004.6 1004.3 5.6
27/04:30am 1.8 -4.9 1.2 96 0.2 SW 26 39 14 21 1004.7 1004.4 2.6
27/04:24am 2.6 -4.4 1.7 94 0.4 SW 28 44 15 24 1004.5 - 1.6
27/04:16am 4.6 -1.6 2.1 84 1.1 SW 24 44 13 24 1003.9 1003.7 0.2
27/04:00am 7.6 2.7 1.9 67 2.5 NW 17 26 9 14 1002.9 1002.6 0.0
27/03:30am 7.4 2.1 1.7 67 2.4 NNW 19 35 10 19 1002.7 1002.5 0.0
27/03:00am 7.6 1.6 1.2 64 2.7 NNW 22 39 12 21 1002.6 1002.4 0.0
27/02:30am 8.0 1.2 1.0 61 3.0 NNW 26 41 14 22 1003.3 1003.0 0.0
27/02:00am 7.9 1.5 1.1 62 2.9 NNW 24 43 13 23 1003.8 1003.6 0.0
27/01:32am 8.3 1.9 0.8 59 3.2 NW 24 46 13 25 1004.0 1003.8 0.0
27/01:30am 8.3 2.7 1.0 60 3.1 NNW 20 46 11 25 1003.8 1003.6 0.0
27/01:00am 8.2 2.1 0.4 58 3.3 NNW 22 44 12 24 1004.0 1003.8 0.0
27/12:30am 8.1 0.1 0.1 57 3.3 NNW 32 56 17 30 1003.6 1003.3 0.0
27/12:00am 7.9 -0.8 -0.3 56 3.4 NNW 35 57 19 31 1004.1 1003.9 0.0
 
Date/Time
EST
Temp
°C
App
Temp
°C
Dew
Point
°C
Rel
Hum
%
Delta-T
°C
Wind Press
QNH
hPa
Press
MSL
hPa
Rain since
9am
mm
Dir  Spd
km/h
Gust
km/h
Spd
kts
Gust
kts
26/11:35pm 7.9 0.6 -0.1 57 3.3 N 28 50 15 27 1005.1 - 0.0
26/11:34pm 7.7 0.4 0.0 58 3.2 N 28 48 15 26 1005.2 1005.0 0.0
26/11:30pm 7.4 0.5 -0.1 59 3.1 N 26 41 14 22 1005.3 1005.1 0.0
26/11:00pm 7.7 -0.4 -0.3 57 3.3 NNW 32 56 17 30 1006.9 1006.7 0.0
26/10:30pm 7.7 -0.6 0.0 58 3.2 NW 33 56 18 30 1007.2 1007.0 0.0
26/10:00pm 7.3 -1.4 -0.2 59 3.1 NW 35 57 19 31 1007.7 1007.5 0.0
26/09:30pm 7.5 -0.7 -0.7 56 3.3 NNW 32 56 17 30 1007.4 1007.2 0.0
26/09:00pm 7.1 -0.7 -1.1 56 3.3 NNW 30 57 16 31 1007.9 1007.7 0.0
26/08:42pm 7.1 -0.4 -1.3 55 3.3 NNW 28 52 15 28 1007.8 1007.6 0.0
26/08:30pm 7.0 -0.1 -1.4 55 3.3 NNW 26 48 14 26 1008.2 1008.1 0.0
26/08:00pm 7.1 2.5 -0.8 57 3.2 NNW 13 28 7 15 1008.8 1008.6 0.0
26/07:30pm 7.0 2.4 -1.2 56 3.3 NNE 13 22 7 12 1009.0 1008.8 0.0
26/07:00pm 7.0 1.6 -1.4 55 3.3 NNE 17 28 9 15 1009.2 1009.0 0.0
26/06:30pm 7.6 3.0 -1.1 54 3.5 NW 13 30 7 16 1009.3 1009.1 0.0
26/06:00pm 7.8 3.2 -1.2 53 3.6 NNE 13 33 7 18 1009.1 1008.9 0.0
26/05:30pm 7.7 1.9 -1.3 53 3.6 NNE 19 28 10 15 1009.2 1009.0 0.0
26/05:00pm 7.6 1.7 -0.6 56 3.3 NNE 20 26 11 14 1009.0 1008.8 0.0
26/04:30pm 8.7 2.8 -0.6 52 3.8 NNE 20 30 11 16 1009.0 1008.8 0.0
26/04:00pm 10.1 5.3 -2.5 41 5.0 NNW 13 24 7 13 1009.4 1009.3 0.0
26/03:30pm 10.9 6.2 -1.8 41 5.2 W 13 24 7 13 1009.4 1009.3 0.0
26/03:00pm 12.1 7.6 -0.4 42 5.3 NW 13 20 7 11 1009.6 1009.5 0.0
26/02:30pm 12.1 7.4 -2.1 37 5.8 WNW 13 20 7 11 1009.6 1009.5 0.0
26/02:00pm 12.5 8.3 -1.1 39 5.7 NW 11 19 6 10 1009.7 1009.6 0.0
26/01:30pm 12.1 7.1 -1.4 39 5.6 W 15 28 8 15 1009.8 1009.7 0.0
26/01:00pm 12.0 6.3 -0.5 42 5.3 WNW 19 30 10 16 1010.1 1009.9 0.0
26/12:30pm 11.9 6.5 -1.3 40 5.5 WNW 17 26 9 14 1010.6 1010.5 0.0
26/12:00pm 11.6 6.4 0.1 45 4.9 WNW 17 24 9 13 1010.9 1010.8 0.0
26/11:30am 11.3 5.7 -0.2 45 4.9 W 19 26 10 14 1011.4 1011.2 0.0
26/11:00am 10.7 4.3 -1.4 43 5.0 WSW 22 32 12 17 1011.6 1011.4 0.0
26/10:30am 10.4 5.6 0.4 50 4.3 W 15 24 8 13 1011.9 1011.8 0.0
26/10:00am 10.3 6.8 3.6 63 3.1 WNW 11 19 6 10 1012.0 1011.9 0.0
26/09:30am 9.6 4.7 2.2 60 3.3 WNW 17 24 9 13 1011.9 1011.8 0.0
26/09:00am 9.2 5.8 3.8 69 2.5 W 11 19 6 10 1011.7 1011.6 1.2
26/08:30am 8.5 4.7 3.8 72 2.1 W 13 20 7 11 1011.7 1011.6 1.2
26/08:00am 7.4 4.1 2.7 72 2.1 NW 9 11 5 6 1011.7 1011.6 1.2
26/07:30am 7.5 3.7 3.7 77 1.7 WNW 13 19 7 10 1011.8 1011.7 1.2
26/07:00am 7.3 3.7 2.8 73 2.0 NW 11 17 6 9 1011.6 1011.4 1.2
26/06:30am 7.7 3.8 3.2 73 2.0 NW 13 19 7 10 1011.4 1011.2 1.2
26/06:00am 8.3 5.6 3.8 73 2.0 WSW 7 17 4 9 1011.2 1011.1 1.2
26/05:30am 7.7 4.6 3.6 75 1.8 WNW 9 15 5 8 1011.0 1010.9 1.2
26/05:00am 8.2 3.3 4.0 75 1.9 WNW 19 26 10 14 1010.6 1010.5 1.2
26/04:30am 8.4 4.7 4.2 75 1.9 WNW 13 19 7 10 1010.4 1010.2 1.2
26/04:00am 8.4 5.0 4.0 74 2.0 WNW 11 17 6 9 1010.1 1009.9 1.2
26/03:30am 9.2 5.2 4.8 74 2.1 NW 15 22 8 12 1010.0 1009.8 1.2
26/03:00am 8.5 4.9 6.6 88 0.9 NW 15 24 8 13 1010.3 1010.1 1.2
26/02:30am 7.8 4.3 7.2 96 0.3 SSW 15 26 8 14 1011.2 1011.1 0.4
26/02:00am 11.2 8.3 4.7 64 3.1 NW 9 15 5 8 1010.5 1010.4 0.4
26/01:30am 12.0 9.1 4.7 61 3.5 NW 9 17 5 9 1010.6 1010.5 0.4
26/01:00am 11.3 8.4 4.5 63 3.2 NW 9 15 5 8 1010.6 1010.5 0.4
26/12:30am 11.7 6.0 4.7 62 3.3 NW 24 43 13 23 1010.8 1010.7 0.4
26/12:00am 12.1 7.2 5.0 62 3.4 NW 20 32 11 17 1010.8 1010.7 0.4
 
Date/Time
EST
Temp
°C
App
Temp
°C
Dew
Point
°C
Rel
Hum
%
Delta-T
°C
Wind Press
QNH
hPa
Press
MSL
hPa
Rain since
9am
mm
Dir  Spd
km/h
Gust
km/h
Spd
kts
Gust
kts
25/11:30pm 11.8 7.1 5.9 67 2.9 NW 20 35 11 19 1010.5 1010.4 0.4
25/11:00pm 10.1 6.7 7.5 84 1.3 N 15 19 8 10 1010.7 1010.6 0.4
25/10:30pm 11.0 6.6 6.7 75 2.1 NNW 19 33 10 18 1011.0 1010.9 0.4
25/10:00pm 12.1 8.2 7.0 71 2.6 NNW 17 26 9 14 1011.5 1011.3 0.4
25/09:30pm 12.5 8.7 7.6 72 2.5 NNW 17 26 9 14 1011.6 1011.4 0.4
25/09:00pm 11.5 8.1 7.8 78 1.9 N 15 20 8 11 1011.7 1011.6 0.4
25/08:30pm 11.9 8.6 8.0 77 2.0 N 15 22 8 12 1011.9 1011.8 0.4
25/08:00pm 12.1 8.4 8.0 76 2.1 N 17 26 9 14 1011.9 1011.8 0.4
25/07:30pm 12.2 8.1 7.9 75 2.2 NNW 19 32 10 17 1012.1 1012.0 0.2
25/07:00pm 12.4 8.3 7.9 74 2.3 NNW 19 28 10 15 1012.1 1012.0 0.2
25/06:30pm 12.9 9.4 7.4 69 2.8 NNW 15 30 8 16 1012.3 1012.2 0.0
25/06:00pm 12.3 8.5 7.4 72 2.5 N 17 22 9 12 1012.2 1012.1 0.0
25/05:30pm 11.6 8.9 7.5 76 2.1 N 11 19 6 10 1012.3 1012.2 0.0
25/05:00pm 12.2 9.1 7.3 72 2.5 N 13 19 7 10 1012.4 1012.3 0.0
25/04:30pm 12.4 8.5 7.3 71 2.6 N 17 26 9 14 1012.4 1012.3 0.0
25/04:00pm 12.4 8.7 7.9 74 2.3 N 17 24 9 13 1012.5 1012.4 0.0
25/03:30pm 13.8 9.2 6.7 62 3.6 NW 20 30 11 16 1013.2 1013.1 0.0
25/03:00pm 15.0 9.6 6.3 56 4.4 NNW 24 46 13 25 1013.0 1012.9 0.0
25/02:30pm 15.6 11.0 6.6 55 4.6 NNW 20 35 11 19 1013.2 1013.1 0.0
25/02:00pm 16.2 10.6 7.2 55 4.7 NW 26 43 14 23 1013.1 1013.0 0.0
25/01:30pm 16.3 10.2 6.4 52 5.0 NNW 28 43 15 23 1013.1 1013.0 0.0
25/01:00pm 16.2 10.0 6.1 51 5.1 NNW 28 46 15 25 1013.3 1013.2 0.0
25/12:59pm 16.2 10.0 6.1 51 5.1 NNW 28 46 15 25 1013.3 1013.2 0.0
25/12:30pm 16.6 11.7 7.0 53 5.0 NNW 22 43 12 23 1013.7 1013.6 0.0
25/12:00pm 16.8 11.6 7.4 54 4.9 NNW 24 39 13 21 1014.2 1014.1 0.0
25/11:30am 16.6 11.2 6.4 51 5.2 NNW 24 48 13 26 1014.7 1014.6 0.0
25/11:00am 13.8 10.2 8.2 69 2.9 NNE 17 35 9 19 1014.9 1014.8 0.0
25/10:30am 12.2 8.8 7.7 74 2.3 NNE 15 26 8 14 1015.3 1015.3 0.0
25/10:00am 12.4 10.2 7.9 74 2.3 NE 9 13 5 7 1016.0 1015.9 0.0
25/09:30am 12.5 9.1 7.8 73 2.4 NE 15 19 8 10 1015.8 1015.7 0.0
25/09:00am 12.7 9.7 7.6 71 2.6 NE 13 17 7 9 1016.2 1016.2 0.2
25/08:30am 12.5 9.5 7.6 72 2.5 NNE 13 22 7 12 1016.1 1016.0 0.2
25/08:00am 12.5 7.2 7.0 69 2.8 N 24 39 13 21 1016.2 1016.2 0.2
25/07:30am 13.3 10.0 6.4 63 3.4 NNW 13 28 7 15 1016.5 1016.5 0.2
25/07:00am 13.4 7.4 7.0 65 3.2 N 28 52 15 28 1016.2 1016.2 0.2
25/06:59am 13.4 7.4 7.2 66 3.1 N 28 52 15 28 1016.0 1015.9 0.2
25/06:30am 13.0 8.7 7.0 67 3.0 N 19 30 10 16 1016.5 1016.5 0.2
25/06:00am 12.2 8.0 7.5 73 2.4 N 19 26 10 14 1016.6 1016.6 0.2
25/05:30am 12.4 9.0 7.5 72 2.5 N 15 24 8 13 1016.8 1016.8 0.2
25/05:00am 13.1 8.8 8.0 71 2.6 N 20 35 11 19 1016.5 1016.5 0.2
25/04:30am 9.5 6.1 7.6 88 0.9 NNE 15 19 8 10 1016.5 1016.5 0.2
25/04:00am 10.3 7.0 8.2 87 1.1 NNE 15 20 8 11 1016.3 1016.3 0.2
25/03:30am 9.9 5.6 8.0 88 1.0 N 20 26 11 14 1016.3 1016.3 0.2
25/03:00am 10.3 5.4 8.4 88 1.0 N 24 32 13 17 1017.0 1016.9 0.2
25/02:30am 11.3 7.0 8.0 80 1.7 N 20 28 11 15 1017.8 1017.8 0.2
25/02:00am 11.6 7.9 7.9 78 1.9 N 17 24 9 13 1017.9 1017.9 0.0
25/01:30am 12.4 8.0 7.5 72 2.5 N 20 35 11 19 1017.9 1017.9 0.0
25/01:00am 12.5 7.1 7.8 73 2.4 N 26 41 14 22 1018.0 1018.0 0.0
25/12:30am 13.7 8.1 7.2 65 3.3 N 26 33 14 18 1018.6 1018.6 0.0
25/12:00am 14.2 8.9 6.8 61 3.7 NNW 24 33 13 18 1018.1 1018.1 0.0
 
Date/Time
EST
Temp
°C
App
Temp
°C
Dew
Point
°C
Rel
Hum
%
Delta-T
°C
Wind Press
QNH
hPa
Press
MSL
hPa
Rain since
9am
mm
Dir  Spd
km/h
Gust
km/h
Spd
kts
Gust
kts
24/11:30pm 11.2 7.7 7.3 77 2.0 N 15 22 8 12 1018.3 1018.3 0.0
24/11:00pm 10.1 5.2 6.8 80 1.6 NNE 22 26 12 14 1018.0 1018.0 0.0
24/10:30pm 10.1 6.5 6.6 79 1.7 NE 15 20 8 11 1018.6 1018.6 0.0
24/10:00pm 10.3 5.8 6.8 79 1.7 N 20 24 11 13 1018.7 1018.7 0.0
24/09:30pm 9.2 5.8 5.9 80 1.6 NE 13 17 7 9 1018.8 1018.8 0.0
24/09:00pm 11.2 7.3 7.3 77 1.9 NNE 17 24 9 13 1018.6 1018.6 0.0
24/08:30pm 10.9 6.4 7.0 77 1.9 NNE 20 28 11 15 1018.7 1018.7 0.0
24/08:00pm 10.9 7.0 7.0 77 1.9 NNE 17 22 9 12 1018.9 1018.9 0.0
24/07:30pm 10.9 6.4 7.0 77 1.9 N 20 26 11 14 1019.1 1019.1 0.0
24/07:00pm 11.4 7.1 7.1 75 2.1 NE 19 26 10 14 1019.0 1019.0 0.0
24/06:30pm 10.8 6.2 6.7 76 2.0 NNE 20 28 11 15 1019.0 1019.0 0.0
24/06:00pm 11.1 6.1 6.6 74 2.2 NNE 22 28 12 15 1019.2 1019.2 0.0
24/05:30pm 11.2 6.7 6.3 72 2.4 NNE 19 22 10 12 1019.4 1019.4 0.0
24/05:00pm 11.6 7.1 5.9 68 2.8 NNE 19 28 10 15 1019.6 1019.7 0.0
24/04:30pm 12.4 8.1 6.9 69 2.8 NNE 19 24 10 13 1019.5 1019.5 0.0
24/04:00pm 12.7 9.0 6.1 64 3.2 NE 15 20 8 11 1019.7 1019.8 0.0

Other formats

Comma delimited format used in spreadsheet applications
http://www.bom.gov.au/fwo/IDV60801/IDV60801.94913.axf

JavaScript Object Notation format (JSON) in row-major order
http://www.bom.gov.au/fwo/IDV60801/IDV60801.94913.json

Data quality

Most of these data are generated automatically and are frequently updated. Quality checks on data are not normally performed. It is possible for incorrect values to appear. Refer to information at About Latest Weather Observations and please check the disclaimer before using these data.